Monday, November 24, 2014
05:12 UTC
  |  Log In   |  Register Free
Airport Search:

Powell Municipal Airport
(KPOY)

Powell Municipal Airport Diagram
No Airport Diagram Available

FAA data valid effective November 13, 2014 - January 08, 2015 (unless otherwise noted).

 
 
 
 
 
 
 
 
 
 
 
 
 
 

Current Aviation Weather for Powell Municipal Airport (KPOY)

The most recent METAR observation for KPOY was updated at: 0422
METAR Summary (Translated METAR)
KPOY
240415Z AUTO 29005KT 10SM SCT039 BKN047 OVC060 00/M10 A2983 RMK AO2
KU68
240415Z AUTO 00000KT 10SM SCT055 OVC075 M01/M06 A2987 RMK AO2 PWINO
(15 nm NE from KPOY)
KCOD
240415Z 21005KT 10SM FEW055 BKN095 BKN120 02/M09 A2984 RMK AO1
(23.1 nm SW from KPOY)
TAF Summary (Translated TAF)
KCOD
231730Z 2318/2418 30015G22KT P6SM SCT040 BKN090 FM240100 26010G18KT P6SM BKN090 FM241000 30012G18KT P6SM VCSH BKN060 AMD LTD TO CLD VIS AND WIND
  Airport Weather Conditions for KPOY

 Current Weather at POY
30° F
Overcast
South winds at 3.5 mph
POY NOAA Radar

Pressure: 29.83 in
Humidity: 51%
Wind: South at 3.5 MPH (3 KT)
Dew Point: 14.0°F
Visibility: 10.00 mi


Airport Weather Forecast for KPOY

Translated METAR and TAF for KCOD
Translated METAR for KCOD (0507 UTC 24 November 2014)
found at http://aviationweather.gov/adds/metars/
 
METAR text: KCOD 240455Z 28013G21KT 10SM BKN110 01/M08 A2983 RMK AO1
Conditions at: KCOD (CODY , WY, US) observed 0455 UTC 24 November 2014
Temperature: 1.0°C (34°F)
Dewpoint: -8.0°C (18°F) [RH = 51%]
Pressure (altimeter): 29.83 inches Hg (1010.2 mb)
Winds: from the W (280 degrees) at 15 MPH (13 knots; 6.8 m/s)
gusting to 24 MPH (21 knots; 10.9 m/s)
Visibility: 10 or more miles (16+ km)
Ceiling: 11000 feet AGL
Clouds: broken clouds at 11000 feet AGL
Weather: no significant weather observed at this time
Translated TAF for KCOD
Forecast for: KCOD (CODY , WY, US)
TAF Text: KCOD 232320Z 2400/2424 30013G21KT P6SM SCT090
Forecast period: 0000 to 0200 UTC 24 November 2014
Forecast type: FROM: standard forecast or significant change
Winds: from the WNW (300 degrees) at 15 MPH (13 knots; 6.8 m/s)
gusting to 24 MPH (21 knots; 10.9 m/s)
Visibility: 6 or more miles (10+ km)
Clouds: scattered clouds at 9000 feet AGL
Weather: no significant weather forecast for this period
TAF Text: FM240200 26010G18KT P6SM BKN090
Forecast period: 0200 to 1000 UTC 24 November 2014
Forecast type: FROM: standard forecast or significant change
Winds: from the W (260 degrees) at 12 MPH (10 knots; 5.2 m/s)
gusting to 21 MPH (18 knots; 9.4 m/s)
Visibility: 6 or more miles (10+ km)
Ceiling: 9000 feet AGL
Clouds: broken clouds at 9000 feet AGL
Weather: no significant weather forecast for this period
TAF Text: FM241000 30012G18KT P6SM VCSH BKN060 AMD LTD TO CLD VIS AND WIND
Forecast period: 1000 UTC 24 November 2014 to 0000 UTC 25 November 2014
Forecast type: FROM: standard forecast or significant change
Winds: from the WNW (300 degrees) at 14 MPH (12 knots; 6.2 m/s)
gusting to 21 MPH (18 knots; 9.4 m/s)
Visibility: 6 or more miles (10+ km)
Ceiling: 6000 feet AGL
Clouds: broken clouds at 6000 feet AGL
Weather: VCSH  (showers in vicinity)

Find All Airport Services Find A Hotel Find A Rental Car Find A Golf Course Find A Restaurant $100 Hamburger



FBO's on the Field
FBO Company Facility Photos Services Transportation Aviation Fuel Prices: Prices include tax
Catering Weather Repair Courtesy Rental Type 100LL JetA JetA+ MOGAS 8087
 
City of Powell

This FBO has not yet been rated
FS:Independent
Last Updated: Nov-13
Login to update fuel prices
SS:
Contact City of PowellMore FBO Information
 
Add another FBO Facility Photos Catering Weather Repair Courtesy Rental Type 100LL JetA JetA+ MOGAS 8087
Services Transportation Aviation Fuel Prices: Prices include tax


model-print
model-print
model-print
model-print